createdAt,value
2023-01-29T00:01:56.311Z,102833.88
2023-01-29T00:04:23.122Z,102828.34
2023-01-29T00:06:49.699Z,102820.38
2023-01-29T00:09:16.331Z,102821.22
2023-01-29T00:11:42.969Z,102816.13
2023-01-29T00:14:09.574Z,102820.34
2023-01-29T00:16:36.203Z,102828.38
2023-01-29T00:19:03.103Z,102831.91
2023-01-29T00:21:33.486Z,102826.50
2023-01-29T00:24:00.597Z,102829.19
2023-01-29T00:26:27.525Z,102818.66
2023-01-29T00:28:55.228Z,102813.13
2023-01-29T00:31:23.759Z,102809.78
2023-01-29T00:33:50.951Z,102811.56
2023-01-29T00:36:19.011Z,102806.16
2023-01-29T00:38:54.528Z,102800.75
2023-01-29T00:41:40.637Z,102797.16
2023-01-29T00:44:26.353Z,102798.03
2023-01-29T00:46:53.055Z,102798.00
2023-01-29T00:49:19.689Z,102786.38
2023-01-29T00:52:06.474Z,102776.75
2023-01-29T00:54:33.296Z,102781.16
2023-01-29T00:57:00.379Z,102784.00
2023-01-29T00:59:27.018Z,102781.25
2023-01-29T01:02:12.543Z,102779.41
2023-01-29T01:04:39.251Z,102787.41
2023-01-29T01:07:06.444Z,102781.91
2023-01-29T01:09:54.053Z,102783.75
2023-01-29T01:12:21.291Z,102786.28
2023-01-29T01:14:48.108Z,102783.69
2023-01-29T01:17:15.516Z,102780.03
2023-01-29T01:19:42.262Z,102784.56
2023-01-29T01:22:08.838Z,102783.59
2023-01-29T01:24:35.458Z,102786.56
2023-01-29T01:27:02.011Z,102790.19
2023-01-29T01:29:28.637Z,102781.22
2023-01-29T01:31:55.251Z,102780.19
2023-01-29T01:34:22.360Z,102787.22
2023-01-29T01:36:49.407Z,102795.34
2023-01-29T01:39:16.025Z,102787.50
2023-01-29T01:41:42.636Z,102786.56
2023-01-29T01:44:47.534Z,102786.38
2023-01-29T01:47:15.543Z,102779.25
2023-01-29T01:49:42.854Z,102781.03
2023-01-29T01:52:10.208Z,102786.38
2023-01-29T01:54:36.871Z,102774.94
2023-01-29T01:57:15.875Z,102779.16
2023-01-29T01:59:51.875Z,102781.81
2023-01-29T02:02:37.017Z,102789.91
2023-01-29T02:05:22.137Z,102789.91
2023-01-29T02:08:08.435Z,102788.09
2023-01-29T02:10:47.792Z,102789.81
2023-01-29T02:13:19.447Z,102786.22
2023-01-29T02:15:48.801Z,102784.50
2023-01-29T02:18:17.759Z,102786.28
2023-01-29T02:20:59.865Z,102789.91
2023-01-29T02:23:40.569Z,102773.66
2023-01-29T02:26:20.612Z,102772.03
2023-01-29T02:29:22.708Z,102764.94
2023-01-29T02:31:59.268Z,102756.09
2023-01-29T02:35:19.259Z,102751.63
2023-01-29T02:37:54.336Z,102753.19
2023-01-29T02:40:31.273Z,102746.28
2023-01-29T02:43:08.373Z,102734.53
2023-01-29T02:45:40.729Z,102723.88
2023-01-29T02:48:08.622Z,102711.41
2023-01-29T02:50:46.613Z,102703.41
2023-01-29T02:53:18.743Z,102695.41
2023-01-29T02:55:58.784Z,102690.16
2023-01-29T02:58:30.651Z,102676.06
2023-01-29T03:01:03.082Z,102683.72
2023-01-29T03:03:34.532Z,102675.91
2023-01-29T03:06:06.402Z,102663.69
2023-01-29T03:08:43.208Z,102665.44
2023-01-29T03:11:14.100Z,102668.94
2023-01-29T03:13:55.098Z,102667.06
2023-01-29T03:16:40.269Z,102668.59
2023-01-29T03:19:17.424Z,102664.97
2023-01-29T03:21:59.092Z,102651.78
2023-01-29T03:25:04.291Z,102652.81
2023-01-29T03:27:53.525Z,102649.09
2023-01-29T03:30:39.794Z,102657.03
2023-01-29T03:33:08.555Z,102650.72
2023-01-29T03:35:39.595Z,102654.25
2023-01-29T03:38:11.646Z,102649.84
2023-01-29T03:41:03.503Z,102666.81
2023-01-29T03:43:35.978Z,102661.09
2023-01-29T03:46:08.657Z,102656.81
2023-01-29T03:48:40.116Z,102661.38
2023-01-29T03:51:12.146Z,102658.94
2023-01-29T03:53:44.551Z,102661.44
2023-01-29T03:56:29.777Z,102658.75
2023-01-29T03:59:03.041Z,102659.34
2023-01-29T04:01:35.932Z,102659.47
2023-01-29T04:04:09.263Z,102666.69
2023-01-29T04:06:37.749Z,102664.91
2023-01-29T04:09:11.574Z,102668.44
2023-01-29T04:11:42.948Z,102663.09
2023-01-29T04:14:09.806Z,102659.34
2023-01-29T04:16:42.301Z,102663.97
2023-01-29T04:19:08.896Z,102657.56
2023-01-29T04:21:37.623Z,102654.03
2023-01-29T04:24:05.937Z,102655.81
2023-01-29T04:27:16.216Z,102652.31
2023-01-29T04:29:50.168Z,102655.59
2023-01-29T04:32:32.249Z,102666.63
2023-01-29T04:35:09.438Z,102665.34
2023-01-29T04:37:37.948Z,102662.69
2023-01-29T04:40:12.192Z,102669.00
2023-01-29T04:42:49.412Z,102676.78
2023-01-29T04:45:18.905Z,102674.97
2023-01-29T04:47:52.064Z,102665.16
2023-01-29T04:50:32.764Z,102660.81
2023-01-29T04:53:24.216Z,102649.44
2023-01-29T04:55:56.846Z,102637.69
2023-01-29T04:58:54.992Z,102626.97
2023-01-29T05:01:25.795Z,102625.41
2023-01-29T05:03:53.832Z,102609.25
2023-01-29T05:06:20.838Z,102611.09
2023-01-29T05:08:48.897Z,102599.56
2023-01-29T05:11:16.539Z,102603.19
2023-01-29T05:13:43.544Z,102616.56
2023-01-29T05:16:15.726Z,102618.28
2023-01-29T05:18:42.578Z,102611.00
2023-01-29T05:21:09.590Z,102597.84
2023-01-29T05:23:36.781Z,102602.38
2023-01-29T05:26:03.870Z,102611.22
2023-01-29T05:28:30.422Z,102593.38
2023-01-29T05:30:57.645Z,102587.06
2023-01-29T05:33:29.651Z,102582.53
2023-01-29T05:35:57.285Z,102587.19
2023-01-29T05:38:23.991Z,102566.63
2023-01-29T05:40:50.737Z,102558.59
2023-01-29T05:43:24.014Z,102559.59
2023-01-29T05:45:58.217Z,102560.38
2023-01-29T05:48:25.658Z,102553.94
2023-01-29T05:50:52.255Z,102559.34
2023-01-29T05:53:19.114Z,102553.16
2023-01-29T05:55:46.634Z,102550.59
2023-01-29T05:58:13.377Z,102548.78
2023-01-29T06:00:40.645Z,102543.47
2023-01-29T06:03:07.364Z,102539.78
2023-01-29T06:05:34.010Z,102527.31
2023-01-29T06:08:00.555Z,102540.75
2023-01-29T06:10:27.148Z,102540.66
2023-01-29T06:12:53.739Z,102536.25
2023-01-29T06:15:20.397Z,102544.41
2023-01-29T06:17:46.993Z,102536.31
2023-01-29T06:20:13.756Z,102539.94
2023-01-29T06:22:40.420Z,102523.78
2023-01-29T06:25:07.538Z,102518.47
2023-01-29T06:27:34.109Z,102525.59
2023-01-29T06:30:00.710Z,102520.16
2023-01-29T06:32:27.862Z,102527.22
2023-01-29T06:34:54.474Z,102530.81
2023-01-29T06:37:21.028Z,102532.63
2023-01-29T06:39:47.597Z,102537.97
2023-01-29T06:42:14.194Z,102542.19
2023-01-29T06:44:40.765Z,102534.19
2023-01-29T06:47:07.392Z,102536.16
2023-01-29T06:49:34.010Z,102531.72
2023-01-29T06:52:00.594Z,102529.13
2023-01-29T06:54:27.233Z,102524.63
2023-01-29T06:56:53.832Z,102511.63
2023-01-29T06:59:20.464Z,102507.25
2023-01-29T07:01:47.126Z,102505.59
2023-01-29T07:04:13.719Z,102508.41
2023-01-29T07:06:40.309Z,102496.97
2023-01-29T07:09:06.936Z,102487.88
2023-01-29T07:11:34.905Z,102491.50
2023-01-29T07:14:01.483Z,102488.81
2023-01-29T07:16:28.169Z,102491.50
2023-01-29T07:18:54.994Z,102489.53
2023-01-29T07:21:21.636Z,102479.69
2023-01-29T07:23:48.234Z,102485.06
2023-01-29T07:26:15.035Z,102485.13
2023-01-29T07:28:41.785Z,102485.34
2023-01-29T07:31:09.431Z,102477.50
2023-01-29T07:33:36.035Z,102475.19
2023-01-29T07:36:02.687Z,102476.56
2023-01-29T07:38:29.328Z,102485.06
2023-01-29T07:40:55.913Z,102481.19
2023-01-29T07:43:24.763Z,102479.84
2023-01-29T07:45:51.963Z,102483.88
2023-01-29T07:48:18.789Z,102493.03
2023-01-29T07:50:45.363Z,102487.97
2023-01-29T07:53:15.200Z,102490.88
2023-01-29T07:55:44.360Z,102493.66
2023-01-29T07:58:11.474Z,102490.91
2023-01-29T08:00:38.087Z,102489.16
2023-01-29T08:03:12.250Z,102484.53
2023-01-29T08:05:38.882Z,102481.72
2023-01-29T08:08:07.633Z,102480.81
2023-01-29T08:10:35.869Z,102469.16
2023-01-29T08:13:03.850Z,102478.84
2023-01-29T08:15:30.808Z,102467.16
2023-01-29T08:17:58.473Z,102458.19
2023-01-29T08:20:25.636Z,102450.97
2023-01-29T08:23:02.378Z,102451.78
2023-01-29T08:25:29.680Z,102453.50
2023-01-29T08:27:57.849Z,102448.16
2023-01-29T08:30:26.106Z,102450.66
2023-01-29T08:32:52.736Z,102451.53
2023-01-29T08:35:19.693Z,102448.75
2023-01-29T08:37:59.743Z,102445.22
2023-01-29T08:40:27.975Z,102452.34
2023-01-29T08:43:02.023Z,102445.09
2023-01-29T08:45:30.327Z,102445.88
2023-01-29T08:47:57.081Z,102445.84
2023-01-29T08:50:23.724Z,102439.53
2023-01-29T08:52:50.477Z,102439.47
2023-01-29T08:55:17.498Z,102428.78
2023-01-29T08:57:44.282Z,102428.66
2023-01-29T09:00:11.586Z,102432.91
2023-01-29T09:02:38.230Z,102429.53
2023-01-29T09:05:05.561Z,102431.13
2023-01-29T09:07:32.319Z,102427.59
2023-01-29T09:09:58.880Z,102414.31
2023-01-29T09:12:25.922Z,102416.06
2023-01-29T09:14:52.468Z,102423.09
2023-01-29T09:17:19.494Z,102426.50
2023-01-29T09:19:46.046Z,102420.31
2023-01-29T09:22:12.737Z,102431.03
2023-01-29T09:24:39.379Z,102434.34
2023-01-29T09:27:06.297Z,102427.22
2023-01-29T09:29:35.507Z,102428.81
2023-01-29T09:32:03.531Z,102430.53
2023-01-29T09:34:30.117Z,102430.47
2023-01-29T09:36:56.683Z,102421.50
2023-01-29T09:39:23.256Z,102415.53
2023-01-29T09:41:58.552Z,102409.34
2023-01-29T09:44:34.108Z,102412.25
2023-01-29T09:47:05.005Z,102392.41
2023-01-29T09:49:37.514Z,102391.59
2023-01-29T09:52:23.011Z,102382.72
2023-01-29T09:54:57.512Z,102388.25
2023-01-29T09:57:45.814Z,102397.25
2023-01-29T10:00:38.689Z,102400.03
2023-01-29T10:03:23.967Z,102395.75
2023-01-29T10:06:18.333Z,102403.06
2023-01-29T10:09:23.554Z,102397.91
2023-01-29T10:12:07.339Z,102398.09
2023-01-29T10:14:40.161Z,102384.72
2023-01-29T10:17:27.865Z,102390.19
2023-01-29T10:19:54.370Z,102391.06
2023-01-29T10:22:32.895Z,102387.41
2023-01-29T10:25:10.240Z,102380.25
2023-01-29T10:27:40.074Z,102386.56
2023-01-29T10:30:21.371Z,102383.91
2023-01-29T10:32:48.717Z,102369.59
2023-01-29T10:35:23.967Z,102374.94
2023-01-29T10:37:52.982Z,102362.38
2023-01-29T10:40:37.280Z,102358.78
2023-01-29T10:43:14.416Z,102356.81
2023-01-29T10:46:18.954Z,102346.13
2023-01-29T10:49:07.365Z,102343.56
2023-01-29T10:52:00.014Z,102324.97
2023-01-29T10:54:58.202Z,102326.78
2023-01-29T10:57:52.479Z,102318.78
2023-01-29T11:00:28.951Z,102319.88
2023-01-29T11:02:55.655Z,102319.09
2023-01-29T11:05:48.655Z,102309.31
2023-01-29T11:08:18.735Z,102307.38
2023-01-29T11:11:09.290Z,102296.72
2023-01-29T11:13:51.182Z,102295.78
2023-01-29T11:16:17.830Z,102280.69
2023-01-29T11:18:51.634Z,102292.16
2023-01-29T11:21:18.254Z,102290.41
2023-01-29T11:23:45.006Z,102279.75
2023-01-29T11:26:13.316Z,102282.47
2023-01-29T11:28:43.618Z,102278.91
2023-01-29T11:31:20.915Z,102275.28
2023-01-29T11:33:47.699Z,102271.66
2023-01-29T11:36:21.602Z,102267.25
2023-01-29T11:39:09.310Z,102266.38
2023-01-29T11:42:00.480Z,102271.81
2023-01-29T11:44:31.495Z,102261.94
2023-01-29T11:47:08.512Z,102255.81
2023-01-29T11:49:35.497Z,102257.53
2023-01-29T11:52:08.757Z,102250.47
2023-01-29T11:54:39.957Z,102246.81
2023-01-29T11:57:20.173Z,102244.16
2023-01-29T11:59:50.704Z,102236.16
2023-01-29T12:02:23.268Z,102229.06
2023-01-29T12:04:50.771Z,102230.06
2023-01-29T12:07:18.482Z,102217.63
2023-01-29T12:09:51.512Z,102220.31
2023-01-29T12:12:26.679Z,102202.63
2023-01-29T12:15:25.056Z,102192.78
2023-01-29T12:18:22.095Z,102180.38
2023-01-29T12:20:52.045Z,102172.22
2023-01-29T12:23:42.045Z,102174.97
2023-01-29T12:26:17.887Z,102158.84
2023-01-29T12:28:59.565Z,102151.66
2023-01-29T12:31:35.292Z,102141.91
2023-01-29T12:34:09.309Z,102136.41
2023-01-29T12:36:59.794Z,102137.28
2023-01-29T12:39:26.517Z,102129.28
2023-01-29T12:41:56.184Z,102131.00
2023-01-29T12:44:31.953Z,102123.78
2023-01-29T12:47:01.053Z,102116.47
2023-01-29T12:49:30.895Z,102104.94
2023-01-29T12:52:11.611Z,102106.72
2023-01-29T12:54:41.247Z,102100.53
2023-01-29T12:57:36.457Z,102106.75
2023-01-29T13:00:06.839Z,102095.09
2023-01-29T13:02:38.594Z,102093.31
2023-01-29T13:05:19.744Z,102090.50
2023-01-29T13:07:53.638Z,102079.03
2023-01-29T13:10:26.353Z,102089.84
2023-01-29T13:13:04.434Z,102087.91
2023-01-29T13:15:37.047Z,102075.50
2023-01-29T13:18:29.486Z,102080.03
2023-01-29T13:20:56.687Z,102075.50
2023-01-29T13:23:32.674Z,102075.41
2023-01-29T13:26:00.029Z,102065.53
2023-01-29T13:28:27.175Z,102067.31
2023-01-29T13:31:13.758Z,102058.34
2023-01-29T13:33:42.185Z,102051.38
2023-01-29T13:36:15.415Z,102039.78
2023-01-29T13:38:45.008Z,102036.19
2023-01-29T13:41:12.236Z,102038.03
2023-01-29T13:43:40.987Z,102026.50
2023-01-29T13:46:17.733Z,102030.91
2023-01-29T13:48:46.848Z,102023.75
2023-01-29T13:51:19.600Z,102018.25
2023-01-29T13:53:56.178Z,102021.75
2023-01-29T13:56:34.716Z,102013.84
2023-01-29T13:59:05.932Z,102012.06
2023-01-29T14:01:47.718Z,102014.66
2023-01-29T14:04:22.855Z,102012.06
2023-01-29T14:06:54.479Z,102006.56
2023-01-29T14:09:39.026Z,102004.75
2023-01-29T14:12:25.564Z,101994.06
2023-01-29T14:15:04.317Z,101994.00
2023-01-29T14:17:31.096Z,101987.75
2023-01-29T14:20:17.674Z,101981.44
2023-01-29T14:22:44.424Z,101979.72
2023-01-29T14:25:17.537Z,101970.84
2023-01-29T14:27:48.217Z,101977.03
2023-01-29T14:30:18.210Z,101963.72
2023-01-29T14:32:49.540Z,101967.31
2023-01-29T14:35:20.184Z,101963.75
2023-01-29T14:37:55.268Z,101958.41
2023-01-29T14:40:26.741Z,101953.94
2023-01-29T14:43:07.468Z,101946.84
2023-01-29T14:45:38.648Z,101938.81
2023-01-29T14:48:11.275Z,101943.19
2023-01-29T14:50:41.912Z,101948.44
2023-01-29T14:53:40.223Z,101944.97
2023-01-29T14:56:35.353Z,101942.22
2023-01-29T14:59:15.383Z,101945.81
2023-01-29T15:01:47.652Z,101942.31
2023-01-29T15:04:19.307Z,101930.66
2023-01-29T15:06:47.856Z,101926.25
2023-01-29T15:09:35.968Z,101920.13
2023-01-29T15:12:16.926Z,101927.25
2023-01-29T15:14:57.029Z,101927.22
2023-01-29T15:17:48.503Z,101926.19
2023-01-29T15:20:32.278Z,101930.63
2023-01-29T15:22:59.118Z,101920.97
2023-01-29T15:25:27.503Z,101932.56
2023-01-29T15:27:54.951Z,101929.13
2023-01-29T15:30:30.747Z,101922.16
2023-01-29T15:32:57.469Z,101915.13
2023-01-29T15:35:26.610Z,101908.16
2023-01-29T15:38:01.572Z,101905.50
2023-01-29T15:40:28.324Z,101897.53
2023-01-29T15:42:54.931Z,101901.94
2023-01-29T15:45:32.438Z,101898.47
2023-01-29T15:48:06.744Z,101894.88
2023-01-29T15:50:35.999Z,101897.56
2023-01-29T15:53:04.439Z,101882.41
2023-01-29T15:55:31.837Z,101876.25
2023-01-29T15:57:59.616Z,101874.53
2023-01-29T16:00:28.625Z,101866.50
2023-01-29T16:02:56.336Z,101863.91
2023-01-29T16:05:29.116Z,101856.75
2023-01-29T16:07:57.190Z,101863.03
2023-01-29T16:10:29.063Z,101855.03
2023-01-29T16:12:55.897Z,101855.84
2023-01-29T16:15:36.732Z,101855.88
2023-01-29T16:18:24.652Z,101860.31
2023-01-29T16:20:53.509Z,101866.56
2023-01-29T16:23:22.837Z,101862.00
2023-01-29T16:25:50.055Z,101855.72
2023-01-29T16:28:17.726Z,101846.84
2023-01-29T16:30:44.390Z,101849.56
2023-01-29T16:33:17.089Z,101845.97
2023-01-29T16:35:50.970Z,101837.03
2023-01-29T16:38:32.611Z,101828.97
2023-01-29T16:41:06.521Z,101826.34
2023-01-29T16:43:42.060Z,101828.09
2023-01-29T16:46:24.167Z,101808.56
2023-01-29T16:48:51.145Z,101810.31
2023-01-29T16:51:20.661Z,101805.03
2023-01-29T16:53:56.343Z,101796.81
2023-01-29T16:56:26.028Z,101797.91
2023-01-29T16:58:53.693Z,101796.03
2023-01-29T17:01:20.806Z,101799.56
2023-01-29T17:03:58.101Z,101804.97
2023-01-29T17:06:25.436Z,101796.94
2023-01-29T17:08:52.382Z,101794.16
2023-01-29T17:11:37.930Z,101792.41
2023-01-29T17:14:07.355Z,101783.44
2023-01-29T17:16:36.438Z,101784.34
2023-01-29T17:19:15.131Z,101768.41
2023-01-29T17:21:41.761Z,101762.28
2023-01-29T17:24:08.372Z,101764.09
2023-01-29T17:26:34.973Z,101754.31
2023-01-29T17:29:01.571Z,101757.03
2023-01-29T17:31:28.272Z,101751.69
2023-01-29T17:33:54.925Z,101749.94
2023-01-29T17:36:21.541Z,101751.75
2023-01-29T17:38:48.129Z,101752.66
2023-01-29T17:41:21.287Z,101741.03
2023-01-29T17:43:47.865Z,101740.16
2023-01-29T17:46:16.428Z,101718.78
2023-01-29T17:48:43.537Z,101716.13
2023-01-29T17:51:13.558Z,101698.28
2023-01-29T17:53:45.865Z,101692.09
2023-01-29T17:56:30.611Z,101673.38
2023-01-29T17:58:57.159Z,101676.97
2023-01-29T18:01:23.834Z,101671.59
2023-01-29T18:03:50.462Z,101662.63
2023-01-29T18:06:28.923Z,101662.66
2023-01-29T18:08:56.510Z,101668.88
2023-01-29T18:11:23.523Z,101674.22
2023-01-29T18:13:50.121Z,101669.75
2023-01-29T18:16:18.435Z,101687.44
2023-01-29T18:18:45.135Z,101690.16
2023-01-29T18:21:11.669Z,101667.13
2023-01-29T18:23:38.239Z,101664.47
2023-01-29T18:26:05.157Z,101653.78
2023-01-29T18:28:31.743Z,101660.75
2023-01-29T18:30:58.349Z,101654.63
2023-01-29T18:33:25.877Z,101656.34
2023-01-29T18:35:54.990Z,101669.59
2023-01-29T18:38:21.553Z,101678.56
2023-01-29T18:40:48.191Z,101680.28
2023-01-29T18:43:15.080Z,101662.50
2023-01-29T18:45:41.656Z,101662.50
2023-01-29T18:48:08.303Z,101649.16
2023-01-29T18:50:35.016Z,101641.22
2023-01-29T18:53:01.595Z,101639.41
2023-01-29T18:55:28.180Z,101644.78
2023-01-29T18:58:27.337Z,101626.94
2023-01-29T19:00:42.191Z,101634.03
2023-01-29T19:03:08.760Z,101625.16
2023-01-29T19:05:35.439Z,101614.47
2023-01-29T19:08:02.157Z,101623.41
2023-01-29T19:10:28.737Z,101626.03
2023-01-29T19:12:55.291Z,101623.38
2023-01-29T19:15:22.804Z,101627.00
2023-01-29T19:17:52.462Z,101626.94
2023-01-29T19:20:19.185Z,101633.13
2023-01-29T19:22:45.806Z,101616.31
2023-01-29T19:25:12.799Z,101625.16
2023-01-29T19:27:39.594Z,101628.69
2023-01-29T19:30:07.015Z,101627.81
2023-01-29T19:32:33.913Z,101619.78
2023-01-29T19:35:00.676Z,101621.63
2023-01-29T19:37:27.921Z,101604.66
2023-01-29T19:39:54.613Z,101591.28
2023-01-29T19:42:21.223Z,101582.44
2023-01-29T19:44:48.168Z,101568.19
2023-01-29T19:47:15.041Z,101568.19
2023-01-29T19:49:41.872Z,101579.78
2023-01-29T19:52:31.780Z,101578.91
2023-01-29T19:55:04.636Z,101578.94
2023-01-29T19:57:32.282Z,101582.44
2023-01-29T19:59:59.986Z,101585.09
2023-01-29T20:02:28.275Z,101583.34
2023-01-29T20:04:55.599Z,101594.84
2023-01-29T20:07:22.840Z,101589.53
2023-01-29T20:09:51.922Z,101585.94
2023-01-29T20:12:19.121Z,101577.97
2023-01-29T20:14:48.890Z,101568.25
2023-01-29T20:17:16.940Z,101560.22
2023-01-29T20:19:44.755Z,101562.97
2023-01-29T20:22:12.275Z,101554.00
2023-01-29T20:24:42.384Z,101555.81
2023-01-29T20:27:12.347Z,101550.44
2023-01-29T20:29:39.403Z,101569.97
2023-01-29T20:32:08.045Z,101572.59
2023-01-29T20:34:35.102Z,101570.91
2023-01-29T20:37:01.822Z,101561.09
2023-01-29T20:39:28.490Z,101557.59
2023-01-29T20:41:57.249Z,101547.81
2023-01-29T20:44:24.698Z,101550.44
2023-01-29T20:46:51.401Z,101537.09
2023-01-29T20:49:18.352Z,101536.22
2023-01-29T20:51:45.582Z,101529.09
2023-01-29T20:54:14.968Z,101533.56
2023-01-29T20:56:42.870Z,101530.84
2023-01-29T20:59:10.235Z,101517.50
2023-01-29T21:01:36.900Z,101521.13
2023-01-29T21:04:03.580Z,101507.69
2023-01-29T21:06:30.317Z,101499.72
2023-01-29T21:08:56.904Z,101496.03
2023-01-29T21:11:23.913Z,101485.38
2023-01-29T21:13:53.180Z,101466.66
2023-01-29T21:16:19.787Z,101464.94
2023-01-29T21:18:46.377Z,101443.56
2023-01-29T21:21:12.944Z,101425.78
2023-01-29T21:23:39.520Z,101438.25
2023-01-29T21:26:06.841Z,101450.72
2023-01-29T21:28:33.897Z,101443.56
2023-01-29T21:31:10.083Z,101431.09
2023-01-29T21:33:37.122Z,101420.44
2023-01-29T21:36:04.417Z,101408.88
2023-01-29T21:38:32.564Z,101394.59
2023-01-29T21:41:04.547Z,101383.97
2023-01-29T21:43:31.180Z,101381.22
2023-01-29T21:45:59.934Z,101387.47
2023-01-29T21:48:26.867Z,101384.78
2023-01-29T21:50:53.629Z,101375.03
2023-01-29T21:53:20.304Z,101387.44
2023-01-29T21:55:46.917Z,101379.41
2023-01-29T21:58:14.640Z,101383.81
2023-01-29T22:00:41.357Z,101382.03
2023-01-29T22:03:07.939Z,101398.00
2023-01-29T22:05:35.055Z,101403.41
2023-01-29T22:08:02.425Z,101398.00
2023-01-29T22:10:30.570Z,101381.16
2023-01-29T22:12:57.860Z,101372.22
2023-01-29T22:15:24.441Z,101329.59
2023-01-29T22:17:51.189Z,101313.53
2023-01-29T22:20:19.028Z,101304.66
2023-01-29T22:22:45.783Z,101296.69
2023-01-29T22:25:12.467Z,101304.69
2023-01-29T22:27:39.242Z,101301.16
2023-01-29T22:30:06.603Z,101304.69
2023-01-29T22:32:33.677Z,101297.59
2023-01-29T22:35:00.292Z,101298.44
2023-01-29T22:37:26.860Z,101304.63
2023-01-29T22:39:53.428Z,101320.59
2023-01-29T22:42:20.811Z,101320.66
2023-01-29T22:44:48.224Z,101313.53
2023-01-29T22:47:15.004Z,101317.88
2023-01-29T22:49:42.212Z,101318.84
2023-01-29T22:52:11.584Z,101325.94
2023-01-29T22:54:42.823Z,101329.56
2023-01-29T22:57:13.919Z,101326.97
2023-01-29T22:59:40.711Z,101327.84
2023-01-29T23:02:07.964Z,101319.81
2023-01-29T23:04:34.632Z,101310.03
2023-01-29T23:07:01.188Z,101303.75
2023-01-29T23:09:27.773Z,101311.81
2023-01-29T23:11:54.371Z,101306.44
2023-01-29T23:14:20.923Z,101309.88
2023-01-29T23:16:47.502Z,101302.88
2023-01-29T23:19:14.040Z,101284.13
2023-01-29T23:21:40.727Z,101279.66
2023-01-29T23:24:08.400Z,101278.00
2023-01-29T23:26:53.480Z,101284.09
2023-01-29T23:29:20.131Z,101269.94
2023-01-29T23:31:46.752Z,101272.50
2023-01-29T23:34:14.058Z,101260.97
2023-01-29T23:36:40.913Z,101245.97
2023-01-29T23:39:08.016Z,101254.81
2023-01-29T23:41:34.908Z,101233.50
2023-01-29T23:44:01.496Z,101230.75
2023-01-29T23:46:28.148Z,101207.69
2023-01-29T23:48:54.722Z,101207.63
2023-01-29T23:51:21.288Z,101201.44
2023-01-29T23:53:47.843Z,101206.75
2023-01-29T23:56:14.399Z,101203.22
2023-01-29T23:58:40.998Z,101205.91
